Tiempo atmosférico en la estación meteorológica de Capella, Huesca (600 m.)



Fecha
DESCASC
Temp. máxima en grados centígrados (hora)
DESCASC
Temp. mínima en grados centígrados (hora)
DESCASC
Temp. media en grados centígrados
DESCASC
Racha de viento máxima en m/sg (hora)
DESCASC
Velocidad máxima media en intervalos de 10 minutos(hora)
DESCASC
Precipitaciones diarias en mm
DESCASC
Precipitaciones de 00:00 a 06:00 en mm
DESCASC
Precipitaciones de 06:00 a 12:00 en mm
DESCASC
Precipitaciones de 12:00 a 18:00 en mm
DESCASC
Precipitaciones de 18:00 a 24:00 en mm
DESCASC
14-02-2019 17.7 (16:30) -2.5 (07:30) 7.6 7.78 (16:40) 3.33 (17:00) 0 0 0 0 0
13-02-2019 15.6 (16:10) -3.4 (07:20) 6.1 5 (17:10) 3.61 (17:50) 0 0 0 0 0
12-02-2019 13 (15:10) -3.7 (06:40) 4.6 7.22 (17:00) 4.72 (17:00) 0 0 0 0 0
11-02-2019 14.1 (16:10) -1.7 (07:30) 6.2 5.56 (15:40) 3.33 (15:20) 0 0 0 0 0
10-02-2019 13.4 (16:30) -1.4 (-00:0) 6 13.89 (15:50) 9.17 (16:00) 0 0 0 0 0
09-02-2019 13.9 (14:10) -0.6 (-00:0) 6.6 6.11 (16:10) 4.44 (15:20) 0 0 0 0 0
08-02-2019 13.6 (15:50) -1.4 (-00:0) 6.1 5.56 (16:50) 4.17 (16:50) 0 0 0 0 0
07-02-2019 14.3 (15:50) 0.5 (00:00) 7.4 6.67 (14:30) 5 (14:30) 0 0 0 0 0
06-02-2019 15.7 (15:10) -0.1 (00:00) 7.8 5.83 (17:20) 4.44 (17:00) 0 0 0 0 0
05-02-2019 15 (16:10) -1.9 (-00:0) 6.6 5.56 (14:10) 4.17 (14:10) 0 0 0 0 0
04-02-2019 9.6 (16:00) -6.5 (-00:0) 1.6 5.83 (16:20) 4.17 (16:20) 0 0 0 0 0
03-02-2019 6.1 (13:10) -1.5 (-00:0) 2.3 21.11 (14:20) 11.67 (14:10) 0 0 0 0 0
02-02-2019 8.9 (15:00) -1.9 (-00:0) 3.5 14.72 (17:30) 7.78 (17:30) 0 0 0 0 0
01-02-2019 10.4 (14:40) 1.5 (00:00) 5.9 13.33 (20:40) 6.94 (20:40) 14.4 6.2 4.2 0 4
31-01-2019 7.2 (16:10) -1 (-00:0) 3.1 3.06 (13:30) 2.22 (13:10) 1 0.2 0.8 0 0
30-01-2019 7.9 (15:40) -2.9 (-00:0) 2.5 9.72 (17:20) 6.11 (16:00) 0 0 0 0 0
29-01-2019 4.3 (15:10) -2.5 (-00:0) 0.9 6.94 (23:40) 4.44 (23:40) 2.2 0 0 2.2 0
28-01-2019 7.5 (13:10) -3.1 (-00:0) 2.2 13.33 (15:10) 8.89 (13:20) 0.6 0 0.4 0.2 0
27-01-2019 10.6 (13:50) -2.1 (-00:0) 4.3 14.44 (14:50) 9.72 (15:10) 0 0 0 0 0
26-01-2019 12.1 (15:40) -0.9 (-00:0) 5.6 6.39 (16:10) 4.72 (16:10) 0 0 0 0 0
25-01-2019 15.9 (14:50) -2.9 (-00:0) 6.5 12.5 (16:10) 6.94 (16:10) 0 0 0 0 0
24-01-2019 6.3 (16:10) -4.6 (-00:0) 0.9 9.17 (17:00) 5.28 (17:10) 0 0 0 0 0
23-01-2019 4.1 (16:10) -4.6 (-00:0) -0.3 4.17 (16:20) 2.5 (16:20) 8.4 0 1.4 0 7
22-01-2019 3.7 (14:40) -6.9 (-00:0) -1.6 3.61 (15:00) 2.78 (15:00) 0 0 0 0 0
21-01-2019 10.4 (16:10) -5.5 (-00:0) 2.4 4.72 (13:30) 3.33 (13:40) 0 0 0 0 0
20-01-2019 9.6 (16:10) -0.8 (-00:0) 4.4 5.28 (15:10) 3.61 (15:10) 1 0.8 0.2 0 0
19-01-2019 6.9 (14:10) -6.5 (-00:0) 0.2 5 (16:10) 3.61 (15:50) 0.2 0 0 0 0.2

Gráficas

Temp. máximas Temp. mínimas Temp. medias Precipitaciones Rachas de viento máximas Velocidades máximas media en intervalos de 10 minutos

Datos horarios

Fecha y hora oficial Temperatura (ºC) Velocidad del viento (km/h) Dirección del viento Racha (km/h) Dirección de racha Precipitación (mm) Presión (hPa) Tendencia (hPa) Humedad (%)
2019-02-17 23:00:00 2.9 9 Nordeste 15 Este 0 -- -- 52
2019-02-17 22:00:00 4 5 Sudeste 11 Norte 0 -- -- 48
2019-02-17 21:00:00 5.7 6 Este 12 Nordeste 0 -- -- 42
2019-02-17 20:00:00 7.9 4 Este 17 Nordeste 0 -- -- 36
2019-02-17 19:00:00 11.6 8 Nordeste 18 Sur 0 -- -- 27
2019-02-17 18:00:00 15.5 8 Sudeste 18 Sudeste 0 -- -- 19
2019-02-17 17:00:00 16.9 9 Sudeste 18 Sudeste 0 -- -- 21
2019-02-17 16:00:00 18.1 6 Sudeste 17 Sudeste 0 -- -- 17
2019-02-17 15:00:00 17.8 6 Este 19 Sudeste 0 -- -- 17
2019-02-17 14:00:00 16.1 5 Oeste 16 Oeste 0 -- -- 20
2019-02-17 13:00:00 14.5 10 Sudoeste 14 Oeste 0 -- -- 29
2019-02-17 12:00:00 11.6 6 Oeste 10 Oeste 0 -- -- 32
2019-02-17 11:00:00 8.2 3 Oeste 5 Oeste 0 -- -- 38
2019-02-17 10:00:00 4.7 3 Nordeste 9 Nordeste 0 -- -- 45
2019-02-17 09:00:00 -0.4 3 Nordeste 8 Nordeste 0 -- -- 60
2019-02-17 08:00:00 -2.2 4 Este 9 Este 0 -- -- 64
2019-02-17 07:00:00 -2.3 4 Nordeste 10 Este 0 -- -- 64
2019-02-17 06:00:00 -2.1 6 Nordeste 9 Nordeste 0 -- -- 63
2019-02-17 05:00:00 -1 4 Nordeste 8 Este 0 -- -- 59
2019-02-17 04:00:00 -0.2 4 Nordeste 9 Nordeste 0 -- -- 55
2019-02-17 03:00:00 -0.9 0 Calma 9 Este 0 -- -- 60
2019-02-17 02:00:00 1.3 6 Nordeste 10 Este 0 -- -- 50
2019-02-17 01:00:00 0.7 5 Nordeste 11 Nordeste 0 -- -- 53
2019-02-17 00:00:00 1 5 Nordeste 11 Nordeste 0 -- -- 52
2019-02-16 23:00:00 2.5 3 Este 14 Nordeste 0 -- -- 48
2019-02-16 22:00:00 4.1 5 Este 13 Este 0 -- -- 41
2019-02-16 21:00:00 5.3 3 Este 12 Nordeste 0 -- -- 37
2019-02-16 20:00:00 7.6 6 Nordeste 13 Este 0 -- -- 33
2019-02-16 19:00:00 9 0 Calma 11 Noroeste 0 -- -- 30
2019-02-16 18:00:00 16.5 4 Sur 19 Sudeste 0 -- -- 16
2019-02-16 17:00:00 18.1 7 Sudeste 15 Sudeste 0 -- -- 15
2019-02-16 16:00:00 18.8 5 Sudeste 14 Sudeste 0 -- -- 15
2019-02-16 15:00:00 18.4 5 Sudeste 22 Sudeste 0 -- -- 15
2019-02-16 14:00:00 16.8 6 Oeste 13 Oeste 0 -- -- 21
2019-02-16 13:00:00 14.5 9 Sudoeste 13 Sudoeste 0 -- -- 30
2019-02-16 12:00:00 11.3 8 Oeste 12 Oeste 0 -- -- 38
2019-02-16 11:00:00 7.6 0 Calma 4 Oeste 0 -- -- 48
2019-02-16 10:00:00 3.2 4 Noroeste 7 Oeste 0 -- -- 58
2019-02-16 09:00:00 -0.2 0 Calma 11 Este 0 -- -- 66
2019-02-16 08:00:00 -1.6 6 Este 11 Nordeste 0 -- -- 70
2019-02-16 07:00:00 -1.3 4 Este 8 Este 0 -- -- 69
2019-02-16 06:00:00 -2.3 3 Este 7 Este 0 -- -- 75
2019-02-16 05:00:00 -0.9 6 Este 10 Sudeste 0 -- -- 69
2019-02-16 04:00:00 0 4 Nordeste 12 Este 0 -- -- 67
2019-02-16 03:00:00 0.2 3 Este 8 Nordeste 0 -- -- 69
2019-02-16 02:00:00 0.7 5 Este 9 Nordeste 0 -- -- 67
2019-02-16 01:00:00 1.6 4 Este 12 Este 0 -- -- 65
2019-02-16 00:00:00 1.7 3 Nordeste 11 Nordeste 0 -- -- 68
2019-02-15 23:00:00 1.9 3 Sudeste 12 Este 0 -- -- 66
2019-02-15 22:00:00 3.4 6 Nordeste 15 Nordeste 0 -- -- 62
2019-02-15 21:00:00 5.1 7 Nordeste 12 Nordeste 0 -- -- 58
2019-02-15 20:00:00 4.8 3 Nordeste 8 Este 0 -- -- 59
2019-02-15 19:00:00 8.2 4 Sudeste 14 Oeste 0 -- -- 50
2019-02-15 18:00:00 13.2 10 Sudoeste 17 Oeste 0 -- -- 39
2019-02-15 17:00:00 16.3 11 Sudoeste 17 Sudoeste 0 -- -- 27
2019-02-15 16:00:00 17.7 6 Sudoeste 13 Sudoeste 0 -- -- 19
2019-02-15 15:00:00 16.9 5 Oeste 11 Sur 0 -- -- 19
2019-02-15 14:00:00 15.6 7 Sudoeste 13 Oeste 0 -- -- 21
2019-02-15 13:00:00 13.6 10 Sudoeste 15 Sudoeste 0 -- -- 28
2019-02-15 12:00:00 10.5 9 Oeste 14 Sudoeste 0 -- -- 34
2019-02-15 11:00:00 6.9 5 Oeste 8 Oeste 0 -- -- 44
2019-02-15 10:00:00 3.1 0 Calma 8 Nordeste 0 -- -- 50
2019-02-15 09:00:00 -0.7 5 Nordeste 12 Este 0 -- -- 60
2019-02-15 08:00:00 -2.1 4 Este 8 Este 0 -- -- 63
2019-02-15 07:00:00 -2.1 4 Nordeste 10 Nordeste 0 -- -- 64
2019-02-15 06:00:00 -1.4 6 Este 10 Nordeste 0 -- -- 62
2019-02-15 05:00:00 -1.3 3 Nordeste 9 Este 0 -- -- 63
2019-02-15 04:00:00 -1.6 4 Este 6 Este 0 -- -- 66
2019-02-15 03:00:00 -0.7 0 Calma 10 Este 0 -- -- 62
2019-02-15 02:00:00 -0.1 5 Este 8 Este 0 -- -- 62
2019-02-15 01:00:00 0.4 4 Este 9 Nordeste 0 -- -- 63
2019-02-15 00:00:00 0.9 2 Este 12 Nordeste 0 -- -- 61
2019-02-14 23:00:00 1.3 4 Nordeste 10 Este 0 -- -- 60
2019-02-14 22:00:00 2.2 3 Sudeste 13 Nordeste 0 -- -- 56
2019-02-14 21:00:00 4.7 6 Nordeste 17 Nordeste 0 -- -- 46
2019-02-14 20:00:00 5 6 Este 11 Nordeste 0 -- -- 48
2019-02-14 19:00:00 7 3 Sur 10 Oeste 0 -- -- 44
2019-02-14 18:00:00 13 9 Sudoeste 17 Sudoeste 0 -- -- 29
2019-02-14 17:00:00 15.4 12 Sudoeste 28 Sudoeste 0 -- -- 31
2019-02-14 16:00:00 17.6 6 Sudeste 13 Este 0 -- -- 14
2019-02-14 15:00:00 16.6 7 Oeste 13 Oeste 0 -- -- 18
2019-02-14 14:00:00 15.6 6 Sudoeste 14 Sudoeste 0 -- -- 22
2019-02-14 13:00:00 13.8 5 Oeste 14 Oeste 0 -- -- 30
2019-02-14 12:00:00 10.5 5 Oeste 9 Oeste 0 -- -- 42
2019-02-14 11:00:00 6.9 3 Noroeste 6 Oeste 0 -- -- 55
2019-02-14 10:00:00 3.7 4 Sudeste 6 Este 0 -- -- 67
2019-02-14 09:00:00 -0.4 3 Nordeste 9 Este 0 -- -- 83
2019-02-14 08:00:00 -1.3 5 Este 10 Este 0 -- -- 86
2019-02-14 07:00:00 -1.3 3 Este 9 Este 0 -- -- 83
2019-02-14 06:00:00 -0.1 5 Este 9 Este 0 -- -- 83
2019-02-14 05:00:00 -0.7 3 Este 8 Nordeste 0 -- -- 86
2019-02-14 04:00:00 0.1 4 Este 8 Sudeste 0 -- -- 86
2019-02-14 03:00:00 -0.8 2 Nordeste 9 Norte 0 -- -- 84
2019-02-14 02:00:00 0.4 4 Este 9 Nordeste 0 -- -- 86
2019-02-14 01:00:00 1 4 Este 9 Nordeste 0 -- -- 85
2019-02-14 00:00:00 0.8 2 Este 7 Norte 0 -- -- 85
2019-02-13 23:00:00 2.1 3 Nordeste 13 Nordeste 0 -- -- 79
2019-02-13 22:00:00 3.8 8 Nordeste 13 Nordeste 0 -- -- 75
2019-02-13 21:00:00 4.2 2 Nordeste 12 Nordeste 0 -- -- 71
2019-02-13 20:00:00 4.3 2 Sudeste 5 Este 0 -- -- 70
2019-02-13 19:00:00 8.9 3 Sudeste 13 Sudoeste 0 -- -- 58
2019-02-13 18:00:00 12 10 Sudoeste 18 Oeste 0 -- -- 50
2019-02-13 17:00:00 14.8 12 Sudoeste 17 Sudoeste 0 -- -- 41
2019-02-13 16:00:00 15.5 9 Oeste 17 Oeste 0 -- -- 37
2019-02-13 15:00:00 14.9 6 Oeste 15 Sudoeste 0 -- -- 37
2019-02-13 14:00:00 13.7 8 Oeste 14 Sudoeste 0 -- -- 36
2019-02-13 13:00:00 11.8 6 Oeste 11 Sudoeste 0 -- -- 41
2019-02-13 12:00:00 9 7 Sudoeste 11 Oeste 0 -- -- 51
2019-02-13 11:00:00 6.4 0 Calma 11 Sudoeste 0 -- -- 60
2019-02-13 10:00:00 1.8 9 Oeste 12 Oeste 0 -- -- 75
2019-02-13 09:00:00 -1.6 4 Este 9 Este 0 -- -- 86
2019-02-13 08:00:00 -2.5 6 Este 9 Sudeste 0 -- -- 90
2019-02-13 07:00:00 -2.5 3 Nordeste 10 Este 0 -- -- 85
2019-02-13 06:00:00 -2.6 2 Nordeste 7 Este 0 -- -- 86
2019-02-13 05:00:00 -2.2 3 Este 9 Este 0 -- -- 90
2019-02-13 04:00:00 -2.6 3 Nordeste 8 Nordeste 0 -- -- 89
2019-02-13 03:00:00 -2.1 3 Este 8 Nordeste 0 -- -- 87
2019-02-13 02:00:00 -1 4 Nordeste 7 Este 0 -- -- 86
2019-02-13 01:00:00 0.1 3 Este 11 Este 0 -- -- 80
2019-02-13 00:00:00 -0.2 2 Nordeste 12 Nordeste 0 -- -- 79
2019-02-12 23:00:00 1 5 Este 11 Este 0 -- -- 79
2019-02-12 22:00:00 1.4 4 Nordeste 12 Nordeste 0 -- -- 75
2019-02-12 21:00:00 2.6 6 Nordeste 12 Nordeste 0 -- -- 71
2019-02-12 20:00:00 3.8 3 Este 9 Este 0 -- -- 63
2019-02-12 19:00:00 5.3 4 Sudoeste 10 Sudoeste 0 -- -- 58
2019-02-12 18:00:00 9.2 9 Sudoeste 22 Sudoeste 0 -- -- 49
2019-02-12 17:00:00 11.3 17 Sudoeste 26 Sudoeste 0 -- -- 43
2019-02-12 16:00:00 12.4 17 Sudoeste 25 Oeste 0 -- -- 38
2019-02-12 15:00:00 12.9 14 Oeste 21 Oeste 0 -- -- 34
2019-02-12 14:00:00 12.4 13 Oeste 21 Oeste 0 -- -- 30
2019-02-12 13:00:00 10.8 9 Sudoeste 14 Oeste 0 -- -- 36
2019-02-12 12:00:00 8.4 4 Oeste 10 Sudoeste 0 -- -- 39
2019-02-12 11:00:00 5.3 4 Oeste 8 Oeste 0 -- -- 49
2019-02-12 10:00:00 1.5 5 Sur 12 Oeste 0 -- -- 62
2019-02-12 09:00:00 -2.4 5 Este 9 Sudeste 0 -- -- 77
2019-02-12 08:00:00 -2.8 0 Calma 10 Este 0 -- -- 74
2019-02-12 07:00:00 -3.6 6 Nordeste 9 Nordeste 0 -- -- 82
2019-02-12 06:00:00 -3 3 Norte 8 Sudoeste 0 -- -- 76
2019-02-12 05:00:00 -2.2 5 Sudoeste 10 Nordeste 0 -- -- 76
2019-02-12 04:00:00 -2.5 3 Nordeste 8 Este 0 -- -- 75
2019-02-12 03:00:00 -0.9 3 Nordeste 8 Sudeste 0 -- -- 70
2019-02-12 02:00:00 -1.2 2 Sudoeste 9 Nordeste 0 -- -- 70
2019-02-12 01:00:00 1.2 5 Este 13 Nordeste 0 -- -- 62
2019-02-12 00:00:00 1.2 9 Nordeste 14 Nordeste 0 -- -- 63
2019-02-11 23:00:00 2.1 6 Este 14 Este 0 -- -- 59
2019-02-11 22:00:00 2.5 5 Nordeste 12 Nordeste 0 -- -- 59
2019-02-11 21:00:00 6 8 Nordeste 13 Este 0 -- -- 46
2019-02-11 20:00:00 6.8 7 Nordeste 17 Este 0 -- -- 44
2019-02-11 19:00:00 8.8 6 Este 17 Este 0 -- -- 41
2019-02-11 18:00:00 12.1 7 Sur 15 Sur 0 -- -- 39
2019-02-11 17:00:00 13.6 10 Sur 17 Sur 0 -- -- 36
2019-02-11 16:00:00 13.8 7 Sur 20 Sudoeste 0 -- -- 35
2019-02-11 15:00:00 13.3 5 Sudoeste 15 Sudoeste 0 -- -- 35
2019-02-11 14:00:00 12.2 3 Nordeste 14 Sudoeste 0 -- -- 33
2019-02-11 13:00:00 10.5 7 Sudoeste 13 Sudoeste 0 -- -- 41
2019-02-11 12:00:00 8.6 3 Este 6 Noroeste 0 -- -- 53
2019-02-11 11:00:00 4.9 3 Sur 6 Sur 0 -- -- 69
2019-02-11 10:00:00 1.9 3 Noroeste 11 Sudeste 0 -- -- 81
2019-02-11 09:00:00 -1.3 4 Nordeste 9 Sudeste 0 -- -- 92
2019-02-11 08:00:00 -1.5 4 Este 10 Este 0 -- -- 93
2019-02-11 07:00:00 -1.4 2 Este 13 Este 0 -- -- 93
2019-02-11 06:00:00 -1 3 Nordeste 10 Este 0 -- -- 92
2019-02-11 05:00:00 0 6 Sudeste 11 Sudeste 0 -- -- 95
2019-02-11 04:00:00 -0.1 4 Sudeste 11 Nordeste 0 -- -- 93
2019-02-11 03:00:00 1.3 6 Este 10 Este 0 -- -- 93
2019-02-11 02:00:00 1.3 3 Nordeste 9 Este 0 -- -- 92
2019-02-11 01:00:00 2.2 7 Este 11 Este 0 -- -- 91
2019-02-11 00:00:00 3.8 4 Este 16 Sudoeste 0 -- -- 87
2019-02-10 23:00:00 6.2 4 Sur 14 Sudoeste 0 -- -- 74
2019-02-10 22:00:00 7.8 10 Sudoeste 19 Sudoeste 0 -- -- 71
2019-02-10 21:00:00 8.3 6 Sudoeste 22 Sudoeste 0 -- -- 73
2019-02-10 20:00:00 8.7 11 Sudoeste 21 Oeste 0 -- -- 73
2019-02-10 19:00:00 9.5 6 Sudoeste 21 Oeste 0 -- -- 70
2019-02-10 18:00:00 11.6 15 Sudoeste 39 Oeste 0 -- -- 63
2019-02-10 17:00:00 13.2 26 Oeste 50 Oeste 0 -- -- 56
2019-02-10 16:00:00 12.3 33 Oeste 50 Sudoeste 0 -- -- 59
2019-02-10 15:00:00 11.9 26 Sudoeste 42 Sudoeste 0 -- -- 59
2019-02-10 14:00:00 12.2 20 Sudoeste 32 Sudoeste 0 -- -- 59
2019-02-10 13:00:00 10.9 21 Sudoeste 31 Sudoeste 0 -- -- 64
2019-02-10 12:00:00 7 9 Oeste 13 Sudoeste 0 -- -- 78
2019-02-10 11:00:00 3.3 9 Sudoeste 10 Sudoeste 0 -- -- 92
2019-02-10 10:00:00 1.8 3 Nordeste 10 Sudeste 0 -- -- 98
2019-02-10 09:00:00 -0.1 3 Sur 6 Este 0 -- -- 97
2019-02-10 08:00:00 -0.9 0 Calma 5 Este 0 -- -- 97
2019-02-10 07:00:00 -0.9 3 Sudeste 7 Nordeste 0 -- -- 97
2019-02-10 06:00:00 -0.3 2 Sudoeste 5 Sudeste 0 -- -- 95
2019-02-10 05:00:00 0.1 2 Nordeste 9 Sudeste 0 -- -- 95
2019-02-10 04:00:00 0.8 7 Sudeste 10 Sudeste 0 -- -- 96
2019-02-10 03:00:00 1.4 7 Sudeste 10 Este 0 -- -- 95
2019-02-10 02:00:00 1.5 3 Nordeste 9 Este 0 -- -- 90
2019-02-10 01:00:00 2.3 4 Nordeste 10 Este 0 -- -- 89
2019-02-10 00:00:00 2.6 6 Este 10 Este 0 -- -- 91
2019-02-09 23:00:00 3 0 Calma 13 Este 0 -- -- 86
2019-02-09 22:00:00 3.4 3 Nordeste 10 Nordeste 0 -- -- 88
2019-02-09 21:00:00 4.8 8 Este 12 Nordeste 0 -- -- 83
2019-02-09 20:00:00 5.1 5 Este 10 Nordeste 0 -- -- 83
2019-02-09 19:00:00 7.3 3 Sudeste 11 Sudoeste 0 -- -- 72
2019-02-09 18:00:00 10.7 10 Sudoeste 17 Oeste 0 -- -- 61
2019-02-09 17:00:00 13.2 10 Oeste 22 Oeste 0 -- -- 54
2019-02-09 16:00:00 13.7 14 Oeste 21 Oeste 0 -- -- 53
2019-02-09 15:00:00 13.8 13 Oeste 18 Oeste 0 -- -- 54
2019-02-09 14:00:00 13.5 7 Oeste 15 Oeste 0 -- -- 56
2019-02-09 13:00:00 12.2 9 Sudoeste 15 Oeste 0 -- -- 55
2019-02-09 12:00:00 9.7 6 Oeste 9 Oeste 0 -- -- 67
2019-02-09 11:00:00 6.8 0 Calma 5 Norte 0 -- -- 76
2019-02-09 10:00:00 3.5 4 Sudeste 6 Sudeste 0 -- -- 87
2019-02-09 09:00:00 0.3 5 Este 7 Sudeste 0 -- -- 97
2019-02-09 08:00:00 -0.4 3 Este 8 Nordeste 0 -- -- 94
2019-02-09 07:00:00 0.1 5 Este 6 Este 0 -- -- 96
2019-02-09 06:00:00 0.2 3 Nordeste 9 Sudeste 0 -- -- 93
2019-02-09 05:00:00 0.4 5 Sudeste 11 Sur 0 -- -- 94
2019-02-09 04:00:00 0.9 8 Sudeste 9 Sudeste 0 -- -- 95
2019-02-09 03:00:00 1.8 4 Nordeste 11 Norte 0 -- -- 91
2019-02-09 02:00:00 0.7 3 Sudeste 6 Norte 0 -- -- 93
2019-02-09 01:00:00 2.1 5 Este 8 Este 0 -- -- 90
2019-02-09 00:00:00 2.4 3 Este 12 Sudeste 0 -- -- 87
2019-02-08 23:00:00 2.7 4 Nordeste 9 Este 0 -- -- 89
2019-02-08 22:00:00 3.4 2 Nordeste 12 Nordeste 0 -- -- 84
2019-02-08 21:00:00 3.2 4 Nordeste 14 Nordeste 0 -- -- 84
2019-02-08 20:00:00 4.3 6 Nordeste 10 Nordeste 0 -- -- 81
2019-02-08 19:00:00 6.8 3 Este 10 Sudoeste 0 -- -- 72
2019-02-08 18:00:00 10.2 8 Sudoeste 18 Sudoeste 0 -- -- 62
2019-02-08 17:00:00 12.6 15 Sudoeste 20 Sudoeste 0 -- -- 53
2019-02-08 16:00:00 13.6 13 Sudoeste 19 Sudoeste 0 -- -- 48
2019-02-08 15:00:00 13 12 Sudoeste 18 Oeste 0 -- -- 48
2019-02-08 14:00:00 12 10 Oeste 16 Oeste 0 -- -- 53
2019-02-08 13:00:00 10.1 8 Sudoeste 12 Sudoeste 0 -- -- 68
2019-02-08 12:00:00 8 2 Norte 6 Oeste 0 -- -- 80
2019-02-08 11:00:00 4.6 2 Norte 6 Nordeste 0 -- -- 95
2019-02-08 10:00:00 0.4 2 Nordeste 4 Nordeste 0 -- -- 99
2019-02-08 09:00:00 -1 0 Calma 6 Sur 0 -- -- 98
2019-02-08 08:00:00 -1.4 2 Este 5 Nordeste 0 -- -- 98
2019-02-08 07:00:00 -0.6 4 Nordeste 6 Nordeste 0 -- -- 98
2019-02-08 06:00:00 0.4 4 Este 8 Nordeste 0 -- -- 98
2019-02-08 05:00:00 -0.2 3 Nordeste 9 Este 0 -- -- 96
2019-02-08 04:00:00 0 2 Este 4 Nordeste 0 -- -- 96
2019-02-08 03:00:00 0.7 0 Calma 8 Nordeste 0 -- -- 94
2019-02-08 02:00:00 1.6 4 Este 7 Nordeste 0 -- -- 95
2019-02-08 01:00:00 2.3 6 Este 10 Este 0 -- -- 95
2019-02-08 00:00:00 3 6 Nordeste 9 Nordeste 0 -- -- 94
2019-02-07 23:00:00 3 3 Este 11 Nordeste 0 -- -- 92
2019-02-07 22:00:00 4.4 6 Este 10 Este 0 -- -- 91
2019-02-07 21:00:00 4.3 8 Nordeste 12 Este 0 -- -- 90
2019-02-07 20:00:00 5.2 0 Calma 6 Sudeste 0 -- -- 85
2019-02-07 19:00:00 8.1 3 Sur 13 Oeste 0 -- -- 76
2019-02-07 18:00:00 10.9 9 Sudoeste 15 Sudoeste 0 -- -- 69
2019-02-07 17:00:00 13.7 10 Sudoeste 21 Sudoeste 0 -- -- 57
2019-02-07 16:00:00 14.3 13 Sur 23 Sur 0 -- -- 58
2019-02-07 15:00:00 13.8 16 Sudoeste 24 Oeste 0 -- -- 56
2019-02-07 14:00:00 12.7 12 Oeste 18 Sudoeste 0 -- -- 63
2019-02-07 13:00:00 11.6 14 Sudoeste 20 Oeste 0 -- -- 66
2019-02-07 12:00:00 9.9 10 Sudoeste 13 Sudoeste 0 -- -- 74
2019-02-07 11:00:00 6.7 4 Oeste 8 Oeste 0 -- -- 86
2019-02-07 10:00:00 4.1 3 Sudeste 8 Nordeste 0 -- -- 97
2019-02-07 09:00:00 0.9 0 Calma 8 Nordeste 0 -- -- 98
2019-02-07 08:00:00 0.8 0 Calma 7 Oeste 0 -- -- 96
2019-02-07 07:00:00 1.4 3 Sur 8 Este 0 -- -- 98
2019-02-07 06:00:00 1.3 0 Calma 10 Este 0 -- -- 98
2019-02-07 05:00:00 1.1 4 Este 8 Nordeste 0 -- -- 97
2019-02-07 04:00:00 1.2 4 Este 8 Nordeste 0 -- -- 97
2019-02-07 03:00:00 1.8 5 Nordeste 9 Nordeste 0 -- -- 96
2019-02-07 02:00:00 2.1 2 Nordeste 8 Este 0 -- -- 95
2019-02-07 01:00:00 2.4 4 Este 11 Nordeste 0 -- -- 94
2019-02-07 00:00:00 2.6 3 Este 13 Nordeste 0 -- -- 91
2019-02-06 23:00:00 3.7 9 Este 12 Este 0 -- -- 91
2019-02-06 22:00:00 4.1 8 Nordeste 13 Nordeste 0 -- -- 91
2019-02-06 21:00:00 4.7 2 Nordeste 10 Nordeste 0 -- -- 87
2019-02-06 20:00:00 5.3 0 Calma 9 Este 0 -- -- 83
2019-02-06 19:00:00 8.3 5 Sudeste 15 Sudoeste 0 -- -- 78
2019-02-06 18:00:00 9.8 14 Oeste 21 Oeste 0 -- -- 73
2019-02-06 17:00:00 13.3 16 Oeste 20 Oeste 0 -- -- 59
2019-02-06 16:00:00 15 12 Oeste 18 Oeste 0 -- -- 56
2019-02-06 15:00:00 15.4 10 Oeste 15 Sudoeste 0 -- -- 51
2019-02-06 14:00:00 14 10 Sudoeste 15 Sudoeste 0 -- -- 57
2019-02-06 13:00:00 12.3 8 Sudoeste 13 Sudoeste 0 -- -- 60
2019-02-06 12:00:00 10 9 Sudoeste 12 Oeste 0 -- -- 66
2019-02-06 11:00:00 7.4 0 Calma 5 Oeste 0 -- -- 75
2019-02-06 10:00:00 4.1 0 Calma 5 Este 0 -- -- 86
2019-02-06 09:00:00 0.6 2 Nordeste 4 Sudeste 0 -- -- 96
2019-02-06 08:00:00 0.1 4 Este 6 Este 0 -- -- 95
2019-02-06 07:00:00 0.1 0 Calma 9 Este 0 -- -- 90
2019-02-06 06:00:00 1.1 3 Nordeste 10 Nordeste 0 -- -- 93
2019-02-06 05:00:00 0.4 0 Calma 9 Este 0 -- -- 91
2019-02-06 04:00:00 1.2 4 Este 9 Este 0 -- -- 92
2019-02-06 03:00:00 2.2 7 Sudeste 9 Nordeste 0 -- -- 94
2019-02-06 02:00:00 2.6 3 Nordeste 10 Este 0 -- -- 90
2019-02-06 01:00:00 2 4 Sudeste 10 Nordeste 0 -- -- 93
2019-02-06 00:00:00 3.2 4 Nordeste 12 Este 0 -- -- 86
2019-02-05 23:00:00 2.9 4 Este 10 Este 0 -- -- 90
2019-02-05 22:00:00 4.5 4 Nordeste 10 Este 0 -- -- 86
2019-02-05 21:00:00 5.5 5 Este 12 Nordeste 0 -- -- 82
2019-02-05 20:00:00 6.6 5 Este 12 Nordeste 0 -- -- 77
2019-02-05 19:00:00 8.2 4 Este 9 Sur 0 -- -- 71
2019-02-05 18:00:00 12.4 4 Sudeste 13 Oeste 0 -- -- 58
2019-02-05 17:00:00 14.7 9 Oeste 15 Oeste 0 -- -- 51
2019-02-05 16:00:00 14.8 10 Oeste 20 Oeste 0 -- -- 50
2019-02-05 15:00:00 13.7 13 Oeste 20 Sudoeste 0 -- -- 50
2019-02-05 14:00:00 12.5 14 Sudoeste 19 Sudoeste 0 -- -- 52
2019-02-05 13:00:00 11.1 8 Sudoeste 12 Oeste 0 -- -- 50
2019-02-05 12:00:00 9.1 5 Nordeste 8 Nordeste 0 -- -- 49
2019-02-05 11:00:00 5.4 4 Sudoeste 8 Sudoeste 0 -- -- 62
2019-02-05 10:00:00 1.8 4 Norte 8 Nordeste 0 -- -- 74
2019-02-05 09:00:00 -1.7 3 Norte 6 Oeste 0 -- -- 84
2019-02-05 08:00:00 -1.6 4 Sudeste 9 Este 0 -- -- 81
2019-02-05 07:00:00 -1.2 3 Este 12 Este 0 -- -- 80
2019-02-05 06:00:00 -1.5 9 Nordeste 13 Nordeste 0 -- -- 82
2019-02-05 05:00:00 -1.6 3 Sur 7 Norte 0 -- -- 82
2019-02-05 04:00:00 -0.2 4 Sudeste 9 Nordeste 0 -- -- 78
2019-02-05 03:00:00 0.5 4 Este 8 Nordeste 0 -- -- 73
2019-02-05 02:00:00 1 3 Este 9 Nordeste 0 -- -- 72
2019-02-05 01:00:00 1.7 4 Nordeste 8 Este 0 -- -- 68
2019-02-05 00:00:00 1.2 2 Este 6 Este 0 -- -- 71
2019-02-04 23:00:00 3.1 4 Este 6 Este 0 -- -- 60
2019-02-04 22:00:00 3.5 2 Norte 6 Sur 0 -- -- 63
2019-02-04 21:00:00 3.5 3 Nordeste 8 Este 0 -- -- 61
2019-02-04 20:00:00 4.1 4 Nordeste 7 Norte 0 -- -- 56
2019-02-04 19:00:00 5.4 5 Este 8 Este 0 -- -- 49
2019-02-04 18:00:00 6.6 4 Sudoeste 15 Oeste 0 -- -- 39
2019-02-04 17:00:00 7.6 12 Oeste 21 Oeste 0 -- -- 38
2019-02-04 16:00:00 9.6 11 Oeste 17 Oeste 0 -- -- 38
2019-02-04 15:00:00 8.8 10 Oeste 20 Sudoeste 0 -- -- 39
2019-02-04 14:00:00 8.5 6 Oeste 14 Sudoeste 0 -- -- 29
2019-02-04 13:00:00 7 7 Oeste 14 Sudoeste 0 -- -- 26
2019-02-04 12:00:00 4.2 11 Sudoeste 16 Sudoeste 0 -- -- 43
2019-02-04 11:00:00 1.6 3 Nordeste 9 Este 0 -- -- 44
2019-02-04 10:00:00 -1.6 3 Norte 10 Norte 0 -- -- 51
2019-02-04 09:00:00 -4.9 7 Este 10 Este 0 -- -- 61
2019-02-04 08:00:00 -6.2 5 Nordeste 12 Este 0 -- -- 68
2019-02-04 07:00:00 -5.6 4 Este 12 Este 0 -- -- 64
2019-02-04 06:00:00 -5.4 5 Sudeste 12 Nordeste 0 -- -- 63
2019-02-04 05:00:00 -4.7 8 Este 13 Este 0 -- -- 58
2019-02-04 04:00:00 -5.7 4 Nordeste 8 Norte 0 -- -- 66
2019-02-04 03:00:00 -4.5 6 Sudeste 9 Sudeste 0 -- -- 60
2019-02-04 02:00:00 -4.3 3 Sur 12 Sur 0 -- -- 61
2019-02-04 01:00:00 -3.2 3 Nordeste 10 Noroeste 0 -- -- 55
2019-02-04 00:00:00 -1 6 Sur 15 Nordeste 0 -- -- 40
2019-02-03 23:00:00 2.1 9 Nordeste 16 Sur 0 -- -- 26
2019-02-03 22:00:00 3.1 8 Oeste 17 Sudoeste 0 -- -- 20
2019-02-03 21:00:00 2.1 5 Oeste 21 Sudoeste 0 -- -- 27
2019-02-03 20:00:00 3.5 9 Oeste 50 Noroeste 0 -- -- 25
2019-02-03 19:00:00 4.1 24 Norte 51 Norte 0 -- -- 24
2019-02-03 18:00:00 4.2 16 Norte 51 Norte 0 -- -- 27
2019-02-03 17:00:00 5.1 23 Norte 49 Norte 0 -- -- 26
2019-02-03 16:00:00 5.6 31 Norte 58 Norte 0 -- -- 26
2019-02-03 15:00:00 5.7 36 Norte 76 Noroeste 0 -- -- 24
2019-02-03 14:00:00 6 34 Noroeste 70 Noroeste 0 -- -- 21
2019-02-03 13:00:00 6 30 Noroeste 65 Noroeste 0 -- -- 22
2019-02-03 12:00:00 5.6 26 Norte 54 Noroeste 0 -- -- 22
2019-02-03 11:00:00 4.8 30 Noroeste 56 Noroeste 0 -- -- 22
2019-02-03 10:00:00 4 30 Norte 58 Norte 0 -- -- 25
2019-02-03 09:00:00 2.9 27 Norte 64 Norte 0 -- -- 25
2019-02-03 08:00:00 2 11 Nordeste 30 Noroeste 0 -- -- 26
2019-02-03 07:00:00 2 26 Noroeste 47 Oeste 0 -- -- 28
2019-02-03 06:00:00 0.7 9 Noroeste 19 Oeste 0 -- -- 33
2019-02-03 05:00:00 -0.4 6 Noroeste 18 Oeste 0 -- -- 44
2019-02-03 04:00:00 -0.3 9 Oeste 18 Oeste 0 -- -- 47
2019-02-03 03:00:00 0.5 11 Oeste 20 Oeste 0 -- -- 45
2019-02-03 02:00:00 0.1 7 Noroeste 17 Noroeste 0 -- -- 50
2019-02-03 01:00:00 1.3 5 Noroeste 26 Noroeste 0 -- -- 44
2019-02-03 00:00:00 -0.9 5 Noroeste 12 Oeste 0 -- -- 53
2019-02-02 23:00:00 -1.3 3 Nordeste 9 Sur 0 -- -- 65
2019-02-02 22:00:00 0.8 3 Oeste 12 Oeste 0 -- -- 47
2019-02-02 21:00:00 2.7 6 Sudoeste 33 Noroeste 0 -- -- 38
2019-02-02 20:00:00 4.3 20 Noroeste 46 Noroeste 0 -- -- 26
2019-02-02 19:00:00 4.3 15 Noroeste 39 Oeste 0 -- -- 27
2019-02-02 18:00:00 5.3 21 Noroeste 53 Noroeste 0 -- -- 31
2019-02-02 17:00:00 6.9 18 Noroeste 39 Noroeste 0 -- -- 37
2019-02-02 16:00:00 7.9 17 Norte 27 Noroeste 0 -- -- 39
2019-02-02 15:00:00 8.9 11 Noroeste 27 Sur 0 -- -- 51
2019-02-02 14:00:00 7.8 13 Oeste 22 Oeste 0 -- -- 60
2019-02-02 13:00:00 6.8 9 Sudoeste 18 Sudoeste 0 -- -- 77
2019-02-02 12:00:00 4.8 14 Oeste 28 Oeste 0 -- -- 82
2019-02-02 11:00:00 3.5 7 Sudoeste 10 Sudoeste 0 -- -- 88
2019-02-02 10:00:00 1 6 Norte 10 Sur 0 -- -- 99
2019-02-02 09:00:00 -1.3 2 Sudeste 9 Sudeste 0 -- -- 100
2019-02-02 08:00:00 -1.3 4 Sudeste 12 Sudoeste 0 -- -- 99
2019-02-02 07:00:00 -1.2 2 Norte 6 Sur 0 -- -- 99
2019-02-02 06:00:00 -1.3 4 Sudeste 9 Sur 0 -- -- 100
2019-02-02 05:00:00 -1 7 Sur 10 Sur 0 -- -- 100
2019-02-02 04:00:00 -0.9 3 Sudoeste 8 Sur 0 -- -- 99
2019-02-02 03:00:00 -0.5 2 Nordeste 9 Sudeste 0 -- -- 98
2019-02-02 02:00:00 0.2 5 Sudeste 12 Sudeste 0 -- -- 98
2019-02-02 01:00:00 0.1 3 Norte 8 Sur 0 -- -- 96
2019-02-02 00:00:00 1.5 4 Sudeste 9 Este 0 -- -- 95
2019-02-01 23:00:00 2.3 3 Este 7 Norte 0 -- -- 95
2019-02-01 22:00:00 2.3 4 Nordeste 12 Este 0 -- -- 94
2019-02-01 21:00:00 2.9 4 Sur 48 Sudoeste 1.4 -- -- 89
2019-02-01 20:00:00 4.4 5 Sur 41 Oeste 2.6 -- -- 93
2019-02-01 19:00:00 5.8 4 Norte 13 Sudeste 0 -- -- 84
2019-02-01 18:00:00 6.7 4 Sudoeste 28 Sudoeste 0 -- -- 77
2019-02-01 17:00:00 9.2 9 Sur 19 Sur 0 -- -- 60
2019-02-01 16:00:00 9.8 10 Sudoeste 29 Oeste 0 -- -- 60
2019-02-01 15:00:00 9.8 16 Sudoeste 36 Sudoeste 0 -- -- 60
2019-02-01 14:00:00 9.8 17 Sudoeste 32 Sudoeste 0 -- -- 61
2019-02-01 13:00:00 9.5 10 Sudoeste 28 Sudoeste 0 -- -- 74
2019-02-01 12:00:00 8.1 14 Oeste 22 Oeste 0 -- -- 84
2019-02-01 11:00:00 8.5 3 Norte 8 Este 0 -- -- 84
2019-02-01 10:00:00 6.3 5 Sudeste 8 Este 0 -- -- 96
2019-02-01 09:00:00 5.4 0 Calma 8 Sur 0.6 -- -- 95
2019-02-01 08:00:00 6 7 Oeste 16 Noroeste 0.6 -- -- 92
2019-02-01 07:00:00 6.3 5 Sudeste 19 Sudoeste 3 -- -- 95
2019-02-01 06:00:00 6.9 11 Sudoeste 23 Sudoeste 2.4 -- -- 98
2019-02-01 05:00:00 5.4 2 Este 5 Nordeste 1.4 -- -- 100
2019-02-01 04:00:00 5.9 3 Sudeste 9 Oeste 1.2 -- -- 100
2019-02-01 03:00:00 5.8 3 Sudeste 9 Sudeste 0.6 -- -- 100
2019-02-01 02:00:00 5.6 3 Sudoeste 9 Sudeste 0.6 -- -- 99
2019-02-01 01:00:00 5.8 3 Sur 8 Sudeste 0 -- -- 99
2019-02-01 00:00:00 5.7 0 Calma 8 Sudeste 0 -- -- 98
2019-01-31 23:00:00 5.5 0 Calma 6 Sudeste 0 -- -- 98
2019-01-31 22:00:00 5.5 4 Este 8 Este 0 -- -- 98
2019-01-31 21:00:00 5.7 3 Nordeste 5 Norte 0 -- -- 96
2019-01-31 20:00:00 6.2 2 Sudeste 11 Nordeste 0 -- -- 94
2019-01-31 19:00:00 6.5 3 Sudeste 7 Este 0 -- -- 90
2019-01-31 18:00:00 6.7 2 Nordeste 6 Nordeste 0 -- -- 88
2019-01-31 17:00:00 7 4 Norte 6 Norte 0 -- -- 87
2019-01-31 16:00:00 6.9 0 Calma 10 Oeste 0 -- -- 87
2019-01-31 15:00:00 6.6 5 Oeste 9 Oeste 0 -- -- 88
2019-01-31 14:00:00 5.2 5 Oeste 11 Sudoeste 0 -- -- 91
2019-01-31 13:00:00 4.5 6 Oeste 11 Oeste 0 -- -- 89
2019-01-31 12:00:00 3.5 3 Norte 6 Nordeste 0 -- -- 91
2019-01-31 11:00:00 2 0 Calma 4 Este 0.4 -- -- 94
2019-01-31 10:00:00 0.8 2 Este 4 Nordeste 0.2 -- -- 97
2019-01-31 09:00:00 0 3 Sudeste 7 Este 0.2 -- -- 97
2019-01-31 08:00:00 -0.6 4 Este 9 Nordeste 0 -- -- 96
2019-01-31 07:00:00 -0.8 5 Este 9 Este 0 -- -- 95
2019-01-31 06:00:00 -0.9 4 Este 6 Este 0 -- -- 96
2019-01-31 05:00:00 -0.9 3 Este 5 Nordeste 0 -- -- 95
2019-01-31 04:00:00 -0.1 2 Sudeste 4 Oeste 0 -- -- 95
2019-01-31 03:00:00 0.3 0 Calma 5 Norte 0 -- -- 94
2019-01-31 02:00:00 0.3 4 Este 6 Nordeste 0.2 -- -- 92
2019-01-31 01:00:00 0.4 2 Sudeste 5 Este 0 -- -- 84
2019-01-31 00:00:00 0.4 0 Calma 8 Este 0 -- -- 84
2019-01-30 23:00:00 0.4 5 Sudeste 9 Este 0 -- -- 82
2019-01-30 22:00:00 0.4 4 Nordeste 8 Nordeste 0 -- -- 80
2019-01-30 21:00:00 1.5 2 Sudoeste 14 Sur 0 -- -- 75
2019-01-30 20:00:00 2.3 8 Sudoeste 13 Oeste 0 -- -- 69
2019-01-30 19:00:00 3.9 12 Sudoeste 23 Oeste 0 -- -- 62
2019-01-30 18:00:00 4.8 18 Oeste 35 Sudoeste 0 -- -- 59
2019-01-30 17:00:00 5.6 18 Sudoeste 33 Sudoeste 0 -- -- 63
2019-01-30 16:00:00 7.3 22 Oeste 32 Oeste 0 -- -- 58
2019-01-30 15:00:00 7.2 16 Oeste 30 Oeste 0 -- -- 58
2019-01-30 14:00:00 7.3 17 Oeste 26 Oeste 0 -- -- 64
2019-01-30 13:00:00 6.3 14 Oeste 33 Sudoeste 0 -- -- 66
2019-01-30 12:00:00 4.4 5 Oeste 12 Sudoeste 0 -- -- 71
2019-01-30 11:00:00 2.7 3 Sudeste 7 Nordeste 0 -- -- 79
2019-01-30 10:00:00 0 4 Nordeste 13 Nordeste 0 -- -- 89
2019-01-30 09:00:00 -2.5 6 Este 13 Nordeste 0 -- -- 95
2019-01-30 08:00:00 -2.6 6 Este 11 Nordeste 0 -- -- 95
2019-01-30 07:00:00 -2.2 8 Nordeste 11 Nordeste 0 -- -- 94
2019-01-30 06:00:00 -0.7 3 Este 15 Sudoeste 0 -- -- 89
2019-01-30 05:00:00 0.6 10 Oeste 21 Sudoeste 0 -- -- 83
2019-01-30 04:00:00 2 17 Sudoeste 23 Sur 0 -- -- 77
2019-01-30 03:00:00 1.8 9 Sudoeste 21 Sudoeste 0 -- -- 80
2019-01-30 02:00:00 0.4 8 Sudoeste 22 Sudoeste 0 -- -- 92
2019-01-30 01:00:00 1.9 15 Sudoeste 21 Sudoeste 0 -- -- 85
2019-01-30 00:00:00 2.2 10 Sudoeste 25 Sur 0 -- -- 83
2019-01-29 23:00:00 0.8 12 Sudoeste 15 Sudoeste 0 -- -- 100
2019-01-29 22:00:00 0.2 3 Sur 11 Sudoeste 0 -- -- 97
2019-01-29 21:00:00 1.5 7 Sudoeste 13 Sudoeste 0 -- -- 98
2019-01-29 20:00:00 1.6 2 Oeste 6 Nordeste 0 -- -- 98
2019-01-29 19:00:00 1.7 4 Nordeste 7 Este 0 -- -- 96
2019-01-29 18:00:00 2 5 Este 9 Este 0.2 -- -- 94
2019-01-29 17:00:00 2.7 0 Calma 9 Sudoeste 1.2 -- -- 93
2019-01-29 16:00:00 3.1 6 Sudoeste 9 Sudoeste 0.8 -- -- 88
2019-01-29 15:00:00 4.2 2 Noroeste 6 Sur 0 -- -- 76
2019-01-29 14:00:00 3.5 4 Oeste 9 Sudoeste 0 -- -- 80
2019-01-29 13:00:00 2.2 0 Calma 7 Este 0 -- -- 88
2019-01-29 12:00:00 0.9 6 Este 8 Nordeste 0 -- -- 93
2019-01-29 11:00:00 0.4 4 Sur 10 Este 0 -- -- 94
2019-01-29 10:00:00 -0.8 4 Nordeste 16 Sudoeste 0 -- -- 95
2019-01-29 09:00:00 -1.6 6 Sur 12 Sudoeste 0 -- -- 95
2019-01-29 08:00:00 -1.9 4 Norte 12 Este 0 -- -- 93
2019-01-29 07:00:00 -2.3 6 Sudeste 8 Este 0 -- -- 95
2019-01-29 06:00:00 -2 2 Sur 12 Sur 0 -- -- 94
2019-01-29 05:00:00 -1.8 6 Sudeste 16 Nordeste 0 -- -- 96
2019-01-29 04:00:00 -1.9 7 Nordeste 11 Nordeste 0 -- -- 96
2019-01-29 03:00:00 -1.5 5 Este 10 Este 0 -- -- 95
2019-01-29 02:00:00 -1.3 0 Calma 9 Sur 0 -- -- 93
2019-01-29 01:00:00 -0.4 8 Este 12 Este 0 -- -- 94
2019-01-29 00:00:00 -0.3 6 Nordeste 17 Sudoeste 0 -- -- 93
2019-01-28 23:00:00 -0.4 4 Oeste 10 Nordeste 0 -- -- 93
2019-01-28 22:00:00 1.4 6 Norte 18 Sur 0 -- -- 87
2019-01-28 21:00:00 3.1 3 Oeste 18 Sur 0 -- -- 82
2019-01-28 20:00:00 3.8 13 Sudoeste 27 Sudoeste 0 -- -- 80
2019-01-28 19:00:00 4.7 11 Noroeste 39 Noroeste 0 -- -- 77
2019-01-28 18:00:00 5.3 22 Noroeste 36 Noroeste 0 -- -- 78
2019-01-28 17:00:00 6.9 19 Noroeste 35 Noroeste 0 -- -- 72
2019-01-28 16:00:00 6.8 28 Oeste 48 Oeste 0 -- -- 76
2019-01-28 15:00:00 7.3 24 Oeste 45 Oeste 0 -- -- 75
2019-01-28 14:00:00 6.4 18 Oeste 45 Oeste 0.2 -- -- 84
2019-01-28 13:00:00 7.3 15 Oeste 23 Oeste 0 -- -- 73
2019-01-28 12:00:00 5.4 5 Norte 10 Oeste 0 -- -- 82
2019-01-28 11:00:00 3.2 5 Nordeste 10 Nordeste 0 -- -- 89
2019-01-28 10:00:00 -0.1 5 Norte 10 Norte 0.4 -- -- 95
2019-01-28 09:00:00 -1.6 3 Nordeste 10 Sudeste 0 -- -- 92
2019-01-28 08:00:00 -1.5 6 Sudeste 14 Este 0 -- -- 87
2019-01-28 07:00:00 -2.7 3 Sudeste 10 Nordeste 0 -- -- 89
2019-01-28 06:00:00 -3.1 5 Nordeste 11 Nordeste 0 -- -- 89
2019-01-28 05:00:00 -2.2 3 Norte 11 Sur 0 -- -- 84
2019-01-28 04:00:00 -2.4 2 Sur 10 Nordeste 0 -- -- 88
2019-01-28 03:00:00 -2.6 3 Este 9 Este 0 -- -- 87
2019-01-28 02:00:00 -1.9 5 Este 10 Nordeste 0 -- -- 84
2019-01-28 01:00:00 -1.4 3 Este 11 Sudeste 0 -- -- 82
2019-01-28 00:00:00 -0.7 4 Sudeste 10 Este 0 -- -- 78
2019-01-27 23:00:00 1.1 5 Nordeste 14 Sudoeste 0 -- -- 70
2019-01-27 22:00:00 3.7 5 Sur 26 Sur 0 -- -- 58
2019-01-27 21:00:00 4 14 Sur 32 Sudoeste 0 -- -- 60
2019-01-27 20:00:00 4.6 22 Sudoeste 35 Sudoeste 0 -- -- 61
2019-01-27 19:00:00 5 20 Sudoeste 31 Sudoeste 0 -- -- 57
2019-01-27 18:00:00 6.4 19 Sudoeste 31 Sudoeste 0 -- -- 56
2019-01-27 17:00:00 7.9 18 Sudoeste 35 Oeste 0 -- -- 56
2019-01-27 16:00:00 8.3 28 Oeste 50 Oeste 0 -- -- 56
2019-01-27 15:00:00 9.8 33 Oeste 52 Oeste 0 -- -- 49
2019-01-27 14:00:00 10.3 31 Oeste 51 Oeste 0 -- -- 48
2019-01-27 13:00:00 9.6 27 Oeste 45 Oeste 0 -- -- 56
2019-01-27 12:00:00 9.4 25 Oeste 41 Oeste 0 -- -- 54
2019-01-27 11:00:00 8 5 Oeste 22 Sudoeste 0 -- -- 62
2019-01-27 10:00:00 4.6 13 Sudoeste 19 Sur 0 -- -- 81
2019-01-27 09:00:00 -1.3 6 Sudeste 13 Nordeste 0 -- -- 98
2019-01-27 08:00:00 -1.6 2 Este 10 Este 0 -- -- 96
2019-01-27 07:00:00 -1.4 4 Este 7 Nordeste 0 -- -- 96
2019-01-27 06:00:00 -1 5 Sur 10 Este 0 -- -- 96
2019-01-27 05:00:00 -0.9 5 Este 9 Este 0 -- -- 96
2019-01-27 04:00:00 -0.6 4 Este 9 Este 0 -- -- 95
2019-01-27 03:00:00 0.2 5 Este 9 Sudeste 0 -- -- 94
2019-01-27 02:00:00 0.7 3 Nordeste 9 Nordeste 0 -- -- 91
2019-01-27 01:00:00 0.9 5 Este 14 Este 0 -- -- 92
2019-01-27 00:00:00 1.5 8 Este 14 Nordeste 0 -- -- 92
2019-01-26 23:00:00 2.1 7 Este 12 Nordeste 0 -- -- 90
2019-01-26 22:00:00 2.5 3 Este 13 Nordeste 0 -- -- 90
2019-01-26 21:00:00 2.9 4 Este 13 Nordeste 0 -- -- 86
2019-01-26 20:00:00 4.1 5 Nordeste 12 Nordeste 0 -- -- 83
2019-01-26 19:00:00 5.9 3 Nordeste 8 Sur 0 -- -- 75
2019-01-26 18:00:00 9.1 3 Sudoeste 13 Oeste 0 -- -- 68
2019-01-26 17:00:00 11.1 12 Oeste 23 Oeste 0 -- -- 60
2019-01-26 16:00:00 12 14 Oeste 22 Sudoeste 0 -- -- 57
2019-01-26 15:00:00 11.7 15 Oeste 20 Sudoeste 0 -- -- 55
2019-01-26 14:00:00 11.8 13 Oeste 18 Oeste 0 -- -- 55
2019-01-26 13:00:00 9.9 8 Oeste 12 Sudoeste 0 -- -- 56
2019-01-26 12:00:00 7.5 5 Oeste 8 Oeste 0 -- -- 63
2019-01-26 11:00:00 4.8 2 Noroeste 5 Oeste 0 -- -- 76
2019-01-26 10:00:00 2 3 Nordeste 7 Este 0 -- -- 83
2019-01-26 09:00:00 -0.5 2 Nordeste 14 Este 0 -- -- 90
2019-01-26 08:00:00 -0.8 3 Este 8 Este 0 -- -- 90
2019-01-26 07:00:00 -0.1 3 Nordeste 9 Sudeste 0 -- -- 87
2019-01-26 06:00:00 0.8 5 Sudeste 10 Este 0 -- -- 85
2019-01-26 05:00:00 0.7 5 Este 12 Este 0 -- -- 85
2019-01-26 04:00:00 0.5 6 Este 11 Sudeste 0 -- -- 85
2019-01-26 03:00:00 0.6 2 Este 10 Nordeste 0 -- -- 85
2019-01-26 02:00:00 1.9 5 Este 12 Este 0 -- -- 79
2019-01-26 01:00:00 2.4 4 Este 12 Este 0 -- -- 77
2019-01-26 00:00:00 2.3 6 Sudeste 12 Sudeste 0 -- -- 77
2019-01-25 23:00:00 3.4 7 Este 12 Noroeste 0 -- -- 71
2019-01-25 22:00:00 5 5 Norte 15 Sur 0 -- -- 66
2019-01-25 21:00:00 6.6 5 Sur 16 Sudoeste 0 -- -- 59
2019-01-25 20:00:00 9.7 6 Sudeste 12 Sudeste 0 -- -- 47
2019-01-25 19:00:00 11.3 9 Oeste 26 Oeste 0 -- -- 44
2019-01-25 18:00:00 13.1 13 Oeste 29 Norte 0 -- -- 41
2019-01-25 17:00:00 15.1 14 Norte 45 Noroeste 0 -- -- 34
2019-01-25 16:00:00 15.6 17 Norte 39 Noroeste 0 -- -- 32
2019-01-25 15:00:00 15.9 8 Norte 22 Oeste 0 -- -- 37
2019-01-25 14:00:00 15.3 5 Noroeste 42 Oeste 0 -- -- 38
2019-01-25 13:00:00 13.7 12 Oeste 41 Oeste 0 -- -- 45
2019-01-25 12:00:00 12 9 Sudoeste 23 Oeste 0 -- -- 44
2019-01-25 11:00:00 6.3 8 Sudoeste 17 Sur 0 -- -- 60
2019-01-25 10:00:00 1.8 5 Oeste 17 Norte 0 -- -- 69
2019-01-25 09:00:00 -1.3 8 Este 21 Oeste 0 -- -- 75
2019-01-25 08:00:00 -1.9 7 Oeste 21 Oeste 0 -- -- 80
2019-01-25 07:00:00 -2.8 2 Norte 10 Sur 0 -- -- 79
2019-01-25 06:00:00 -2.5 6 Este 12 Sudoeste 0 -- -- 79
2019-01-25 05:00:00 -2.3 6 Sudeste 13 Sudoeste 0 -- -- 73
2019-01-25 04:00:00 -2.4 5 Sur 12 Norte 0 -- -- 68
2019-01-25 03:00:00 -1.2 6 Sur 14 Sudoeste 0 -- -- 60
2019-01-25 02:00:00 0.3 15 Sudoeste 23 Sudoeste 0 -- -- 49
2019-01-25 01:00:00 0.9 5 Sur 19 Norte 0 -- -- 56
2019-01-25 00:00:00 -2.5 6 Oeste 11 Sudoeste 0 -- -- 70
2019-01-24 23:00:00 -1.8 6 Sur 15 Sudoeste 0 -- -- 63
2019-01-24 22:00:00 -1.2 4 Sudoeste 12 Oeste 0 -- -- 55
2019-01-24 21:00:00 -1.2 3 Sudeste 13 Sudoeste 0 -- -- 58
2019-01-24 20:00:00 0.2 4 Nordeste 14 Nordeste 0 -- -- 50
2019-01-24 19:00:00 3 6 Norte 18 Norte 0 -- -- 33
2019-01-24 18:00:00 4.3 8 Norte 32 Oeste 0 -- -- 24
2019-01-24 17:00:00 5.8 17 Oeste 33 Oeste 0 -- -- 24
2019-01-24 16:00:00 6.1 17 Oeste 30 Oeste 0 -- -- 28
2019-01-24 15:00:00 6 17 Noroeste 30 Oeste 0 -- -- 31
2019-01-24 14:00:00 5.4 17 Oeste 26 Oeste 0 -- -- 34
2019-01-24 13:00:00 4.6 12 Oeste 26 Sudoeste 0 -- -- 43
2019-01-24 12:00:00 4 6 Oeste 22 Sudoeste 0 -- -- 43
2019-01-24 11:00:00 1 4 Nordeste 13 Sur 0 -- -- 75
2019-01-24 10:00:00 -1 4 Este 9 Este 0 -- -- 82
2019-01-24 09:00:00 -4.3 6 Este 9 Este 0 -- -- 91
2019-01-24 08:00:00 -4.1 3 Sudeste 8 Norte 0 -- -- 91
2019-01-24 07:00:00 -2.8 3 Este 11 Sur 0 -- -- 83
2019-01-24 06:00:00 -2 6 Sur 12 Sudoeste 0 -- -- 83
2019-01-24 05:00:00 -1 3 Oeste 8 Nordeste 0 -- -- 88
2019-01-24 04:00:00 0 9 Oeste 15 Sudoeste 0 -- -- 92
2019-01-24 03:00:00 0.2 4 Oeste 10 Oeste 0 -- -- 95
2019-01-24 02:00:00 0.5 3 Sudoeste 12 Sudeste 0 -- -- 97
2019-01-24 01:00:00 0.3 3 Este 14 Sur 0 -- -- 98
2019-01-24 00:00:00 0.5 9 Sur 13 Sur 1 -- -- 99
2019-01-23 23:00:00 0.2 3 Nordeste 6 Nordeste 1 -- -- 98
2019-01-23 22:00:00 0.7 5 Sur 11 Sur 1.2 -- -- 97
2019-01-23 21:00:00 0.9 2 Sur 9 Sudeste 1.2 -- -- 97
2019-01-23 20:00:00 1 6 Nordeste 8 Nordeste 1.6 -- -- 95
2019-01-23 19:00:00 2.5 0 Calma 9 Noroeste 1 -- -- 93
2019-01-23 18:00:00 3.3 6 Oeste 13 Oeste 0 -- -- 87
2019-01-23 17:00:00 3.8 8 Oeste 15 Sudoeste 0 -- -- 85
2019-01-23 16:00:00 3.8 8 Oeste 11 Oeste 0 -- -- 88
2019-01-23 15:00:00 2.6 7 Sudoeste 11 Oeste 0 -- -- 95
2019-01-23 14:00:00 1.4 2 Noroeste 6 Noroeste 0 -- -- 94
2019-01-23 13:00:00 1 2 Norte 5 Sur 0 -- -- 93
2019-01-23 12:00:00 0.7 2 Sur 10 Nordeste 0.2 -- -- 96
2019-01-23 11:00:00 -0.4 5 Nordeste 9 Nordeste 0.2 -- -- 97
2019-01-23 10:00:00 -1.8 5 Nordeste 9 Nordeste 0.4 -- -- 98
2019-01-23 09:00:00 -3 2 Este 9 Este 0.2 -- -- 97
2019-01-23 08:00:00 -3.7 3 Nordeste 6 Sudeste 0.4 -- -- 95
2019-01-23 07:00:00 -3.8 4 Sudeste 6 Este 0 -- -- 93
2019-01-23 06:00:00 -4.6 2 Sudeste 8 Sudeste 0 -- -- 93
2019-01-23 05:00:00 -4.6 3 Nordeste 9 Este 0 -- -- 91
2019-01-23 04:00:00 -4.5 6 Nordeste 10 Nordeste 0 -- -- 92
2019-01-23 03:00:00 -4.3 4 Este 8 Este 0 -- -- 91
2019-01-23 02:00:00 -4 3 Sudoeste 11 Este 0 -- -- 87
2019-01-23 01:00:00 -3.6 5 Este 10 Nordeste 0 -- -- 90
2019-01-23 00:00:00 -2.6 6 Este 13 Nordeste 0 -- -- 83
2019-01-22 23:00:00 -2.6 6 Nordeste 11 Nordeste 0 -- -- 89
2019-01-22 22:00:00 -1.6 5 Este 13 Este 0 -- -- 84
2019-01-22 21:00:00 -0.9 5 Sudeste 10 Nordeste 0 -- -- 85
2019-01-22 20:00:00 -0.2 3 Este 9 Este 0 -- -- 83
2019-01-22 19:00:00 0.2 3 Este 8 Sur 0 -- -- 80
2019-01-22 18:00:00 2.2 4 Nordeste 6 Sudoeste 0 -- -- 66
2019-01-22 17:00:00 3.1 0 Calma 5 Oeste 0 -- -- 56
2019-01-22 16:00:00 3.2 4 Oeste 12 Sudoeste 0 -- -- 53
2019-01-22 15:00:00 3 10 Oeste 13 Oeste 0 -- -- 45
2019-01-22 14:00:00 3 2 Noroeste 9 Oeste 0 -- -- 44
2019-01-22 13:00:00 1.6 3 Noroeste 9 Sudoeste 0 -- -- 57
2019-01-22 12:00:00 -0.8 0 Calma 4 Noroeste 0 -- -- 64
2019-01-22 11:00:00 -2.1 2 Noroeste 7 Sudoeste 0 -- -- 67
2019-01-22 10:00:00 -4 4 Sudeste 9 Este 0 -- -- 76
2019-01-22 09:00:00 -5.3 5 Sudoeste 10 Oeste 0 -- -- 77
2019-01-22 08:00:00 -5.9 3 Nordeste 10 Nordeste 0 -- -- 74
2019-01-22 07:00:00 -6.1 4 Este 9 Sudeste 0 -- -- 75
2019-01-22 06:00:00 -6.7 5 Este 9 Nordeste 0 -- -- 78
2019-01-22 05:00:00 -6.7 0 Calma 10 Este 0 -- -- 81
2019-01-22 04:00:00 -5.4 3 Sudeste 8 Sudeste 0 -- -- 76
2019-01-22 03:00:00 -4.9 2 Este 11 Nordeste 0 -- -- 73
2019-01-22 02:00:00 -4.2 3 Este 12 Nordeste 0 -- -- 70
2019-01-22 01:00:00 -3.4 4 Este 12 Nordeste 0 -- -- 69
2019-01-22 00:00:00 -3.2 5 Nordeste 9 Nordeste 0 -- -- 69
2019-01-21 23:00:00 -2.5 6 Nordeste 10 Este 0 -- -- 68
2019-01-21 22:00:00 -2.1 8 Este 12 Nordeste 0 -- -- 71
2019-01-21 21:00:00 -1.4 5 Nordeste 10 Este 0 -- -- 72
2019-01-21 20:00:00 0.6 3 Este 12 Sur 0 -- -- 68
2019-01-21 19:00:00 3 5 Sudeste 11 Este 0 -- -- 63
2019-01-21 18:00:00 5.2 9 Sur 12 Sur 0 -- -- 63
2019-01-21 17:00:00 9.9 7 Sudoeste 12 Sur 0 -- -- 40
2019-01-21 16:00:00 10.2 7 Sudoeste 15 Sudoeste 0 -- -- 38
2019-01-21 15:00:00 9.5 7 Sudoeste 13 Oeste 0 -- -- 48
2019-01-21 14:00:00 6.9 7 Sudoeste 17 Sudoeste 0 -- -- 67
2019-01-21 13:00:00 4.5 9 Oeste 13 Sudoeste 0 -- -- 74
2019-01-21 12:00:00 2.5 5 Sudoeste 13 Oeste 0 -- -- 76
2019-01-21 11:00:00 -0.3 10 Sudoeste 15 Oeste 0 -- -- 90
2019-01-21 10:00:00 -1.9 3 Nordeste 8 Nordeste 0 -- -- 96
2019-01-21 09:00:00 -4.8 5 Este 8 Este 0 -- -- 97
2019-01-21 08:00:00 -5.1 2 Sudeste 5 Sudeste 0 -- -- 96
2019-01-21 07:00:00 -4.4 3 Este 8 Este 0 -- -- 95
2019-01-21 06:00:00 -4.3 4 Este 7 Sudeste 0 -- -- 95
2019-01-21 05:00:00 -3.6 0 Calma 6 Este 0 -- -- 94
2019-01-21 04:00:00 -2.9 4 Oeste 8 Este 0 -- -- 93
2019-01-21 03:00:00 -2.3 7 Este 10 Este 0 -- -- 95
2019-01-21 02:00:00 -2.2 3 Nordeste 10 Sudeste 0 -- -- 93
2019-01-21 01:00:00 -1.5 4 Nordeste 8 Nordeste 0 -- -- 94
2019-01-21 00:00:00 -0.8 3 Este 8 Sudeste 0 -- -- 94
2019-01-20 23:00:00 -0.2 5 Este 11 Este 0 -- -- 96
2019-01-20 22:00:00 0.1 4 Este 12 Este 0 -- -- 94
2019-01-20 21:00:00 1.2 0 Calma 10 Este 0 -- -- 92
2019-01-20 20:00:00 1.9 4 Sudeste 7 Sur 0 -- -- 91
2019-01-20 19:00:00 3.4 3 Sur 9 Sur 0 -- -- 85
2019-01-20 18:00:00 6.6 4 Sudoeste 14 Oeste 0 -- -- 75
2019-01-20 17:00:00 7.9 12 Oeste 17 Oeste 0 -- -- 68
2019-01-20 16:00:00 9.5 9 Oeste 19 Oeste 0 -- -- 67
2019-01-20 15:00:00 8.9 12 Oeste 16 Oeste 0 -- -- 70
2019-01-20 14:00:00 7.9 9 Oeste 13 Oeste 0 -- -- 77
2019-01-20 13:00:00 6.5 8 Oeste 13 Oeste 0 -- -- 83
2019-01-20 12:00:00 4.2 4 Oeste 8 Oeste 0 -- -- 99
2019-01-20 11:00:00 1.4 3 Noroeste 8 Sur 0 -- -- 100
2019-01-20 10:00:00 -0.1 2 Sudeste 5 Este 0 -- -- 100
2019-01-20 09:00:00 -0.4 0 Calma 5 Nordeste 0 -- -- 99
2019-01-20 08:00:00 -0.1 2 Nordeste 5 Este 0.2 -- -- 98
2019-01-20 07:00:00 0.6 0 Calma 5 Sudeste 0 -- -- 99
2019-01-20 06:00:00 1.2 3 Sur 5 Sudeste 0 -- -- 99
2019-01-20 05:00:00 1.2 3 Oeste 5 Oeste 0 -- -- 99
2019-01-20 04:00:00 1.3 3 Oeste 5 Oeste 0 -- -- 99
2019-01-20 03:00:00 1.5 3 Nordeste 5 Nordeste 0 -- -- 98
2019-01-20 02:00:00 1.6 3 Nordeste 7 Nordeste 0.6 -- -- 97
2019-01-20 01:00:00 1.3 4 Nordeste 8 Nordeste 0.2 -- -- 96
2019-01-20 00:00:00 1.3 0 Calma 3 Nordeste 0.2 -- -- 93
2019-01-19 23:00:00 1.5 0 Calma 5 Sudoeste 0 -- -- 89
2019-01-19 22:00:00 1.3 2 Este 8 Este 0 -- -- 88
2019-01-19 21:00:00 1.5 3 Oeste 6 Nordeste 0 -- -- 86
2019-01-19 20:00:00 1.5 0 Calma 6 Este 0 -- -- 86
2019-01-19 19:00:00 1.3 0 Calma 5 Sudeste 0 -- -- 82
2019-01-19 18:00:00 3 4 Sudeste 12 Oeste 0 -- -- 79
2019-01-19 17:00:00 3.8 10 Oeste 18 Oeste 0 -- -- 77
2019-01-19 16:00:00 5.8 12 Oeste 17 Oeste 0 -- -- 68
2019-01-19 15:00:00 6.5 12 Oeste 16 Sudoeste 0 -- -- 65
2019-01-19 14:00:00 6.6 9 Sudoeste 15 Sudoeste 0 -- -- 64
2019-01-19 13:00:00 4.8 9 Oeste 13 Sudoeste 0 -- -- 67
2019-01-19 12:00:00 2.9 2 Oeste 6 Oeste 0 -- -- 79
2019-01-19 11:00:00 -0.1 6 Oeste 9 Oeste 0 -- -- 89
2019-01-19 10:00:00 -3 0 Calma 6 Sur 0 -- -- 98
2019-01-19 09:00:00 -6.2 2 Sudeste 6 Sur 0 -- -- 96
2019-01-19 08:00:00 -6 2 Oeste 7 Sudoeste 0 -- -- 95
2019-01-19 07:00:00 -5 7 Este 10 Nordeste 0 -- -- 97
2019-01-19 06:00:00 -5.3 3 Este 9 Nordeste 0 -- -- 96
2019-01-19 05:00:00 -4.9 3 Sudeste 6 Nordeste 0 -- -- 96
2019-01-19 04:00:00 -4.2 4 Este 9 Este 0 -- -- 96
2019-01-19 03:00:00 -4 0 Calma 6 Este 0 -- -- 94
2019-01-19 02:00:00 -3.5 4 Este 8 Este 0 -- -- 96
2019-01-19 01:00:00 -3 0 Calma 6 Este 0 -- -- 95
2019-01-19 00:00:00 -2.5 0 Calma 8 Este 0 -- -- 93